logo dgac
Miércoles 22 de Mayo del 2019
Buscar por aerodromo o helipuerto
Ingrese nombre de aeródromo, localidad o designador OACI:
METAR del 22-05-2019 a las 10:00 UTC
METAR SCEL 221000Z 02004KT 350V070 7000 NSC 01/M01 Q1020 NOSIG
Viento: dirección 020 grados, velocidad 4 nudos
Viento con dirección variable entre 350 y 070 grados
Visibilidad: 7000 metros
Sin nubes bajo los 5000 pies o bajo del MSA (Mínimo de Seguridad del Aeródromo)
Temperatura: 1 °C
Rocío: -1 °C
Humedad_relativa: 86%
Presión: 1020 hPa
No se esperan cambios significativos en las próximas 2 horas
METAR del 22-05-2019 a las 09:00 UTC
METAR SCEL 220900Z 06003KT 040V120 7000 NSC 01/M01 Q1020 NOSIG
Viento: dirección 060 grados, velocidad 3 nudos
Viento con dirección variable entre 040 y 120 grados
Visibilidad: 7000 metros
Sin nubes bajo los 5000 pies o bajo del MSA (Mínimo de Seguridad del Aeródromo)
Temperatura: 1 °C
Rocío: -1 °C
Humedad_relativa: 86%
Presión: 1020 hPa
No se esperan cambios significativos en las próximas 2 horas
METAR del 22-05-2019 a las 08:00 UTC
METAR SCEL 220800Z VRB01KT 7000 NSC 01/M01 Q1021 NOSIG
Viento: dirección variable, velocidad 1 nudos
Visibilidad: 7000 metros
Sin nubes bajo los 5000 pies o bajo del MSA (Mínimo de Seguridad del Aeródromo)
Temperatura: 1 °C
Rocío: -1 °C
Humedad_relativa: 86%
Presión: 1021 hPa
No se esperan cambios significativos en las próximas 2 horas
METAR del 22-05-2019 a las 07:00 UTC
METAR SCEL 220700Z 32004KT 8000 NSC 03/00 Q1021 NOSIG
Viento: dirección 320 grados, velocidad 4 nudos
Visibilidad: 8000 metros
Sin nubes bajo los 5000 pies o bajo del MSA (Mínimo de Seguridad del Aeródromo)
Temperatura: 3 °C
Rocío: 0 °C
Humedad_relativa: 81%
Presión: 1021 hPa
No se esperan cambios significativos en las próximas 2 horas
METAR del 22-05-2019 a las 06:00 UTC
METAR SCEL 220600Z 00000KT 8000 NSC 03/00 Q1021 NOSIG
Visibilidad: 8000 metros
Sin nubes bajo los 5000 pies o bajo del MSA (Mínimo de Seguridad del Aeródromo)
Temperatura: 3 °C
Rocío: 0 °C
Humedad_relativa: 81%
Presión: 1021 hPa
No se esperan cambios significativos en las próximas 2 horas
METAR del 22-05-2019 a las 06:00 UTC
METAR SCEL 220600Z 00000KT 8000 NSC 03/00 Q1021 NOSIG
Visibilidad: 8000 metros
Sin nubes bajo los 5000 pies o bajo del MSA (Mínimo de Seguridad del Aeródromo)
Temperatura: 3 °C
Rocío: 0 °C
Humedad_relativa: 81%
Presión: 1021 hPa
No se esperan cambios significativos en las próximas 2 horas
METAR del 22-05-2019 a las 05:00 UTC
METAR SCEL 220500Z 00000KT 8000 NSC 04/01 Q1021 NOSIG
Visibilidad: 8000 metros
Sin nubes bajo los 5000 pies o bajo del MSA (Mínimo de Seguridad del Aeródromo)
Temperatura: 4 °C
Rocío: 1 °C
Humedad_relativa: 81%
Presión: 1021 hPa
No se esperan cambios significativos en las próximas 2 horas
METAR del 22-05-2019 a las 05:00 UTC
METAR SCEL 220500Z 00000KT 8000 NSC 04/01 Q1021 NOSIG
Visibilidad: 8000 metros
Sin nubes bajo los 5000 pies o bajo del MSA (Mínimo de Seguridad del Aeródromo)
Temperatura: 4 °C
Rocío: 1 °C
Humedad_relativa: 81%
Presión: 1021 hPa
No se esperan cambios significativos en las próximas 2 horas
METAR del 22-05-2019 a las 04:00 UTC
METAR SCEL 220400Z VRB01KT 8000 NSC 06/02 Q1022 NOSIG
Viento: dirección variable, velocidad 1 nudos
Visibilidad: 8000 metros
Sin nubes bajo los 5000 pies o bajo del MSA (Mínimo de Seguridad del Aeródromo)
Temperatura: 6 °C
Rocío: 2 °C
Humedad_relativa: 76%
Presión: 1022 hPa
No se esperan cambios significativos en las próximas 2 horas
METAR del 22-05-2019 a las 04:00 UTC
METAR SCEL 220400Z VRB01KT 8000 NSC 06/02 Q1022 NOSIG
Viento: dirección variable, velocidad 1 nudos
Visibilidad: 8000 metros
Sin nubes bajo los 5000 pies o bajo del MSA (Mínimo de Seguridad del Aeródromo)
Temperatura: 6 °C
Rocío: 2 °C
Humedad_relativa: 76%
Presión: 1022 hPa
No se esperan cambios significativos en las próximas 2 horas